Terminal Aerodrome Forecast
Issued by NWS

Home | Current Version | Previous Version | Text Only | Print | Product List | Glossary On
Versions: 1 2 3 4 5 6 7 8 9 10 11 12 13 14 15 16 17 18 19 20 21 22 23 24 25 26 27 28 29
000
FTUS42 KCAE 220528
TAFCUB
TAF
KCUB 220528Z 2206/2306 22006KT P6SM SCT008 BKN015
     FM220900 21006KT 1SM TSRA BR OVC004CB
     FM221500 22012KT 3SM BR VCTS BKN015CB
     FM222100 20012G20KT 5SM TSRA BR SCT015 BKN035CB
     FM230200 23013G25KT 4SM SHRA BR OVC025=

USA.gov is the U.S. government's official web portal to all federal, state and local government web resources and services.